createdAt,value
2022-07-31T00:01:20.221Z,2.42
2022-07-31T00:03:46.674Z,2.20
2022-07-31T00:06:13.126Z,2.40
2022-07-31T00:08:39.479Z,2.75
2022-07-31T00:11:05.872Z,2.17
2022-07-31T00:13:57.340Z,2.40
2022-07-31T00:16:18.739Z,2.60
2022-07-31T00:18:45.184Z,2.10
2022-07-31T00:21:13.916Z,2.40
2022-07-31T00:23:40.984Z,2.17
2022-07-31T00:26:07.759Z,2.08
2022-07-31T00:28:34.175Z,2.60
2022-07-31T00:31:00.552Z,2.38
2022-07-31T00:33:26.927Z,2.05
2022-07-31T00:35:53.307Z,1.92
2022-07-31T00:38:27.690Z,1.83
2022-07-31T00:40:54.755Z,2.35
2022-07-31T00:43:21.437Z,1.80
2022-07-31T00:45:56.257Z,2.00
2022-07-31T00:48:25.679Z,2.05
2022-07-31T00:50:52.176Z,2.20
2022-07-31T00:53:18.565Z,2.15
2022-07-31T00:55:51.961Z,1.90
2022-07-31T00:58:19.855Z,2.33
2022-07-31T01:00:46.395Z,1.75
2022-07-31T01:03:12.956Z,2.30
2022-07-31T01:05:39.323Z,2.35
2022-07-31T01:08:05.751Z,2.08
2022-07-31T01:10:48.875Z,1.80
2022-07-31T01:15:48.136Z,2.30
2022-07-31T01:18:17.203Z,2.30
2022-07-31T01:20:46.572Z,2.33
2022-07-31T01:23:31.143Z,2.28
2022-07-31T01:26:47.478Z,2.13
2022-07-31T01:29:21.250Z,2.78
2022-07-31T01:32:02.034Z,2.03
2022-07-31T01:34:39.440Z,2.40
2022-07-31T01:37:30.046Z,2.42
2022-07-31T01:40:03.222Z,2.60
2022-07-31T01:42:31.667Z,2.50
2022-07-31T01:45:00.900Z,2.47
2022-07-31T01:47:29.221Z,2.30
2022-07-31T01:49:58.457Z,2.13
2022-07-31T01:52:28.235Z,2.10
2022-07-31T01:54:57.059Z,2.40
2022-07-31T01:57:25.988Z,2.22
2022-07-31T01:59:56.664Z,2.75
2022-07-31T02:02:47.279Z,2.05
2022-07-31T02:05:16.927Z,2.35
2022-07-31T02:07:45.556Z,2.00
2022-07-31T02:10:15.754Z,2.40
2022-07-31T02:12:44.769Z,2.40
2022-07-31T02:15:14.464Z,2.45
2022-07-31T02:17:45.744Z,2.10
2022-07-31T02:20:18.995Z,2.30
2022-07-31T02:22:48.001Z,2.20
2022-07-31T02:25:15.693Z,2.90
2022-07-31T02:27:57.415Z,2.60
2022-07-31T02:32:53.791Z,3.00
2022-07-31T02:35:21.443Z,2.22
2022-07-31T02:37:51.028Z,2.70
2022-07-31T02:40:18.794Z,2.40
2022-07-31T02:42:46.430Z,2.20
2022-07-31T02:45:14.638Z,2.20
2022-07-31T02:47:42.364Z,2.67
2022-07-31T02:50:12.699Z,2.65
2022-07-31T02:52:39.766Z,2.13
2022-07-31T02:55:06.795Z,3.00
2022-07-31T02:57:33.174Z,2.25
2022-07-31T02:59:59.761Z,2.47
2022-07-31T03:02:36.813Z,2.67
2022-07-31T03:05:05.617Z,2.58
2022-07-31T03:07:32.027Z,2.88
2022-07-31T03:09:58.736Z,2.50
2022-07-31T03:12:45.791Z,2.65
2022-07-31T03:15:15.091Z,2.40
2022-07-31T03:17:43.218Z,2.45
2022-07-31T03:20:14.568Z,2.42
2022-07-31T03:22:42.107Z,2.33
2022-07-31T03:25:09.699Z,2.83
2022-07-31T03:27:36.468Z,2.65
2022-07-31T03:30:04.771Z,2.47
2022-07-31T03:32:31.291Z,2.70
2022-07-31T03:34:57.883Z,2.63
2022-07-31T03:37:24.287Z,2.80
2022-07-31T03:39:50.628Z,2.40
2022-07-31T03:42:19.122Z,3.15
2022-07-31T03:44:47.923Z,2.55
2022-07-31T03:47:16.497Z,2.30
2022-07-31T03:49:44.231Z,2.70
2022-07-31T03:52:12.601Z,2.50
2022-07-31T03:54:40.122Z,2.90
2022-07-31T03:57:16.523Z,2.80
2022-07-31T03:59:48.176Z,2.40
2022-07-31T04:02:17.245Z,2.95
2022-07-31T04:04:49.228Z,2.42
2022-07-31T04:07:15.787Z,3.00
2022-07-31T04:09:42.847Z,2.28
2022-07-31T04:12:10.924Z,2.28
2022-07-31T04:14:37.427Z,2.75
2022-07-31T04:17:04.200Z,3.08
2022-07-31T04:19:31.207Z,2.55
2022-07-31T04:21:58.782Z,2.47
2022-07-31T04:24:25.863Z,3.00
2022-07-31T04:27:12.552Z,2.33
2022-07-31T04:29:42.508Z,2.55
2022-07-31T04:32:08.872Z,2.90
2022-07-31T04:34:42.248Z,3.42
2022-07-31T04:37:08.772Z,2.60
2022-07-31T04:39:35.451Z,2.80
2022-07-31T04:42:02.284Z,3.08
2022-07-31T04:44:31.207Z,2.30
2022-07-31T04:47:03.491Z,3.20
2022-07-31T04:49:33.431Z,2.83
2022-07-31T04:52:02.080Z,2.85
2022-07-31T04:54:29.885Z,2.67
2022-07-31T04:56:58.028Z,2.58
2022-07-31T05:00:00.417Z,2.47
2022-07-31T05:02:13.281Z,3.00
2022-07-31T05:04:39.757Z,3.05
2022-07-31T05:07:06.103Z,2.53
2022-07-31T05:09:35.679Z,2.97
2022-07-31T05:12:04.955Z,2.20
2022-07-31T05:14:31.916Z,2.60
2022-07-31T05:16:59.161Z,2.67
2022-07-31T05:19:30.639Z,2.63
2022-07-31T05:22:20.145Z,3.17
2022-07-31T05:25:08.515Z,2.45
2022-07-31T05:27:39.159Z,2.50
2022-07-31T05:32:34.571Z,2.75
2022-07-31T05:35:01.176Z,3.10
2022-07-31T05:37:27.579Z,2.78
2022-07-31T05:39:54.016Z,3.10
2022-07-31T05:42:52.484Z,3.05
2022-07-31T05:45:46.948Z,3.53
2022-07-31T05:48:14.640Z,3.00
2022-07-31T05:50:51.084Z,3.20
2022-07-31T05:53:18.597Z,3.33
2022-07-31T05:56:08.553Z,3.58
2022-07-31T05:58:41.717Z,3.08
2022-07-31T06:01:09.746Z,3.50
2022-07-31T06:03:38.589Z,2.80
2022-07-31T06:06:20.188Z,3.13
2022-07-31T06:08:46.704Z,2.88
2022-07-31T06:11:13.063Z,3.13
2022-07-31T06:13:42.672Z,2.78
2022-07-31T06:16:23.645Z,3.20
2022-07-31T06:18:50.380Z,3.90
2022-07-31T06:23:42.763Z,4.32
2022-07-31T06:26:22.002Z,3.40
2022-07-31T06:28:50.713Z,3.78
2022-07-31T06:31:18.994Z,3.58
2022-07-31T06:33:48.442Z,4.45
2022-07-31T06:36:16.847Z,4.60
2022-07-31T06:38:56.999Z,3.78
2022-07-31T06:41:44.428Z,3.13
2022-07-31T06:44:45.968Z,2.50
2022-07-31T06:47:31.435Z,3.40
2022-07-31T06:50:16.577Z,2.50
2022-07-31T06:52:53.406Z,3.30
2022-07-31T06:55:22.281Z,2.63
2022-07-31T06:57:49.716Z,3.50
2022-07-31T07:00:19.835Z,2.80
2022-07-31T07:02:47.359Z,3.10
2022-07-31T07:05:14.309Z,2.92
2022-07-31T07:07:40.737Z,2.92
2022-07-31T07:10:08.993Z,3.30
2022-07-31T07:12:54.363Z,3.00
2022-07-31T07:15:21.670Z,3.33
2022-07-31T07:17:48.061Z,3.25
2022-07-31T07:20:19.768Z,3.20
2022-07-31T07:22:46.596Z,2.97
2022-07-31T07:25:20.444Z,2.78
2022-07-31T07:27:47.727Z,3.22
2022-07-31T07:30:14.688Z,3.55
2022-07-31T07:32:41.339Z,3.00
2022-07-31T07:35:09.484Z,3.33
2022-07-31T07:37:48.659Z,2.75
2022-07-31T07:40:17.067Z,3.30
2022-07-31T07:42:43.956Z,3.33
2022-07-31T07:45:10.994Z,3.40
2022-07-31T07:48:05.198Z,2.75
2022-07-31T07:50:27.140Z,3.10
2022-07-31T07:53:14.620Z,4.30
2022-07-31T07:56:06.901Z,4.05
2022-07-31T07:58:51.903Z,3.10
2022-07-31T08:01:50.489Z,3.10
2022-07-31T08:04:22.851Z,3.33
2022-07-31T08:06:49.252Z,3.90
2022-07-31T08:09:16.678Z,3.55
2022-07-31T08:12:18.362Z,3.13
2022-07-31T08:15:04.662Z,2.65
2022-07-31T08:17:51.989Z,3.20
2022-07-31T08:20:20.060Z,3.20
2022-07-31T08:22:46.687Z,2.67
2022-07-31T08:25:15.078Z,3.63
2022-07-31T08:27:42.418Z,2.72
2022-07-31T08:30:10.032Z,2.90
2022-07-31T08:32:38.718Z,2.80
2022-07-31T08:35:05.757Z,2.88
2022-07-31T08:37:59.369Z,3.40
2022-07-31T08:40:21.019Z,3.35
2022-07-31T08:42:47.624Z,3.13
2022-07-31T08:45:15.098Z,3.38
2022-07-31T08:47:49.218Z,2.83
2022-07-31T08:50:22.996Z,2.60
2022-07-31T08:52:54.773Z,3.10
2022-07-31T08:55:56.795Z,3.60
2022-07-31T08:58:27.461Z,3.17
2022-07-31T09:00:54.758Z,3.40
2022-07-31T09:03:22.402Z,3.20
2022-07-31T09:05:58.848Z,2.45
2022-07-31T09:08:25.657Z,2.90
2022-07-31T09:11:03.240Z,3.10
2022-07-31T09:13:36.303Z,2.90
2022-07-31T09:16:07.396Z,3.30
2022-07-31T09:18:34.930Z,3.25
2022-07-31T09:21:07.457Z,3.47
2022-07-31T09:23:44.629Z,3.38
2022-07-31T09:26:11.099Z,2.80
2022-07-31T09:28:43.602Z,3.22
2022-07-31T09:31:10.927Z,2.83
2022-07-31T09:33:55.712Z,3.58
2022-07-31T09:36:48.420Z,2.70
2022-07-31T09:39:52.396Z,2.63
2022-07-31T09:42:55.222Z,3.22
2022-07-31T09:45:25.468Z,3.20
2022-07-31T09:48:15.176Z,2.85
2022-07-31T09:50:57.577Z,3.08
2022-07-31T09:53:26.199Z,3.50
2022-07-31T09:56:03.456Z,2.40
2022-07-31T09:58:29.864Z,2.80
2022-07-31T10:00:57.066Z,2.88
2022-07-31T10:03:25.245Z,2.90
2022-07-31T10:05:52.804Z,3.08
2022-07-31T10:08:20.990Z,2.70
2022-07-31T10:11:16.634Z,3.38
2022-07-31T10:13:56.336Z,2.53
2022-07-31T10:16:27.327Z,3.25
2022-07-31T10:19:11.097Z,2.70
2022-07-31T10:22:03.297Z,3.28
2022-07-31T10:24:42.908Z,2.92
2022-07-31T10:27:09.676Z,4.40
2022-07-31T10:29:39.353Z,3.20
2022-07-31T10:32:06.917Z,4.10
2022-07-31T10:34:36.943Z,2.88
2022-07-31T10:37:11.602Z,3.50
2022-07-31T10:40:20.948Z,3.10
2022-07-31T10:43:20.201Z,3.33
2022-07-31T10:46:06.944Z,2.95
2022-07-31T10:48:53.195Z,3.15
2022-07-31T10:51:49.457Z,2.70
2022-07-31T10:54:47.638Z,2.90
2022-07-31T10:57:34.836Z,3.00
2022-07-31T11:00:40.602Z,3.70
2022-07-31T11:03:22.866Z,2.97
2022-07-31T11:06:07.677Z,3.00
2022-07-31T11:08:54.237Z,3.15
2022-07-31T11:11:40.592Z,2.90
2022-07-31T11:14:40.413Z,4.00
2022-07-31T11:18:23.678Z,3.00
2022-07-31T11:20:31.513Z,3.10
2022-07-31T11:23:06.133Z,3.40
2022-07-31T11:25:35.382Z,3.90
2022-07-31T11:28:24.553Z,3.20
2022-07-31T11:30:56.524Z,2.92
2022-07-31T11:33:31.695Z,3.60
2022-07-31T11:36:13.954Z,2.92
2022-07-31T11:38:44.742Z,3.10
2022-07-31T11:41:14.967Z,2.72
2022-07-31T11:43:46.405Z,2.70
2022-07-31T11:46:19.501Z,2.40
2022-07-31T11:48:47.035Z,3.75
2022-07-31T11:51:18.526Z,2.70
2022-07-31T11:53:45.711Z,3.03
2022-07-31T11:56:19.564Z,2.40
2022-07-31T11:58:57.226Z,2.67
2022-07-31T12:01:28.961Z,3.20
2022-07-31T12:03:57.723Z,2.30
2022-07-31T12:06:36.360Z,2.70
2022-07-31T12:09:03.528Z,2.92
2022-07-31T12:11:30.174Z,2.97
2022-07-31T12:13:56.633Z,2.60
2022-07-31T12:16:23.096Z,3.08
2022-07-31T12:18:51.759Z,2.50
2022-07-31T12:21:19.609Z,2.47
2022-07-31T12:23:50.158Z,2.45
2022-07-31T12:26:23.912Z,2.45
2022-07-31T12:29:06.605Z,2.53
2022-07-31T12:31:53.655Z,2.28
2022-07-31T12:34:34.954Z,2.40
2022-07-31T12:37:04.592Z,2.15
2022-07-31T12:39:54.381Z,2.63
2022-07-31T12:42:30.451Z,2.65
2022-07-31T12:45:18.085Z,2.45
2022-07-31T12:47:52.149Z,2.53
2022-07-31T12:50:23.037Z,2.55
2022-07-31T12:52:49.521Z,2.53
2022-07-31T12:55:17.378Z,3.17
2022-07-31T12:57:50.417Z,3.00
2022-07-31T13:00:23.439Z,2.95
2022-07-31T13:02:51.749Z,4.30
2022-07-31T13:05:18.271Z,3.28
2022-07-31T13:07:44.831Z,2.35
2022-07-31T13:10:20.926Z,2.35
2022-07-31T13:12:51.352Z,2.30
2022-07-31T13:15:18.653Z,2.30
2022-07-31T13:17:50.177Z,2.33
2022-07-31T13:20:17.759Z,2.58
2022-07-31T13:22:44.201Z,2.75
2022-07-31T13:25:10.682Z,2.13
2022-07-31T13:27:37.104Z,2.10
2022-07-31T13:30:04.587Z,2.55
2022-07-31T13:32:31.642Z,2.40
2022-07-31T13:35:26.760Z,2.22
2022-07-31T13:37:46.283Z,2.53
2022-07-31T13:40:12.962Z,2.50
2022-07-31T13:42:39.439Z,2.25
2022-07-31T13:45:08.371Z,2.65
2022-07-31T13:47:50.557Z,3.00
2022-07-31T13:52:44.683Z,2.55
2022-07-31T13:55:11.062Z,2.10
2022-07-31T13:57:37.449Z,2.33
2022-07-31T14:00:04.471Z,2.22
2022-07-31T14:02:31.381Z,2.03
2022-07-31T14:04:57.869Z,2.10
2022-07-31T14:07:24.235Z,2.05
2022-07-31T14:10:10.731Z,2.00
2022-07-31T14:12:37.160Z,1.73
2022-07-31T14:15:04.365Z,2.33
2022-07-31T14:17:30.933Z,1.80
2022-07-31T14:19:57.321Z,2.03
2022-07-31T14:22:23.714Z,2.13
2022-07-31T14:24:51.237Z,2.53
2022-07-31T14:27:17.989Z,2.47
2022-07-31T14:29:44.693Z,1.77
2022-07-31T14:32:11.116Z,3.15
2022-07-31T14:34:37.582Z,2.22
2022-07-31T14:37:04.866Z,2.05
2022-07-31T14:39:31.477Z,1.83
2022-07-31T14:41:57.862Z,2.05
2022-07-31T14:44:28.734Z,2.35
2022-07-31T14:46:55.544Z,1.85
2022-07-31T14:49:21.964Z,2.30
2022-07-31T14:51:48.500Z,2.20
2022-07-31T14:54:14.876Z,1.98
2022-07-31T14:59:29.363Z,1.73
2022-07-31T15:01:56.008Z,1.85
2022-07-31T15:04:22.492Z,2.03
2022-07-31T15:07:07.228Z,2.10
2022-07-31T15:09:35.270Z,2.10
2022-07-31T15:12:02.109Z,2.05
2022-07-31T15:14:30.504Z,1.60
2022-07-31T15:16:57.422Z,2.08
2022-07-31T15:19:24.110Z,1.90
2022-07-31T15:22:09.812Z,2.30
2022-07-31T15:24:39.283Z,1.77
2022-07-31T15:27:08.826Z,1.95
2022-07-31T15:30:05.554Z,1.85
2022-07-31T15:32:22.655Z,1.70
2022-07-31T15:34:49.109Z,2.20
2022-07-31T15:37:20.288Z,2.15
2022-07-31T15:40:02.329Z,1.70
2022-07-31T15:42:31.760Z,1.98
2022-07-31T15:44:58.235Z,2.00
2022-07-31T15:47:24.656Z,2.00
2022-07-31T15:49:51.024Z,1.90
2022-07-31T15:52:18.906Z,2.22
2022-07-31T15:54:46.477Z,1.88
2022-07-31T15:57:13.333Z,1.63
2022-07-31T15:59:39.742Z,1.75
2022-07-31T16:02:06.481Z,2.47
2022-07-31T16:04:32.919Z,1.65
2022-07-31T16:07:00.315Z,1.75
2022-07-31T16:10:03.805Z,2.28
2022-07-31T16:12:33.693Z,1.80
2022-07-31T16:15:00.132Z,1.60
2022-07-31T16:17:37.634Z,1.70
2022-07-31T16:20:20.792Z,1.77
2022-07-31T16:22:55.536Z,2.15
2022-07-31T16:25:22.996Z,2.85
2022-07-31T16:27:49.420Z,2.20
2022-07-31T16:30:15.843Z,2.10
2022-07-31T16:32:42.911Z,2.03
2022-07-31T16:35:11.290Z,1.77
2022-07-31T16:37:51.557Z,1.80
2022-07-31T16:40:28.751Z,2.55
2022-07-31T16:43:48.025Z,1.85
2022-07-31T16:45:52.906Z,1.90
2022-07-31T16:48:19.569Z,2.10
2022-07-31T16:50:48.244Z,2.60
2022-07-31T16:54:11.110Z,1.90
2022-07-31T16:56:06.865Z,1.35
2022-07-31T16:58:33.271Z,1.52
2022-07-31T17:00:59.792Z,1.40
2022-07-31T17:03:59.587Z,1.58
2022-07-31T17:06:12.655Z,1.40
2022-07-31T17:08:39.038Z,1.45
2022-07-31T17:11:05.673Z,1.60
2022-07-31T17:13:32.368Z,1.67
2022-07-31T17:15:58.818Z,1.52
2022-07-31T17:18:25.900Z,1.63
2022-07-31T17:20:55.736Z,2.00
2022-07-31T17:23:40.114Z,1.30
2022-07-31T17:26:10.401Z,1.10
2022-07-31T17:28:47.371Z,1.70
2022-07-31T17:31:13.733Z,1.63
2022-07-31T17:33:59.652Z,1.40
2022-07-31T17:36:26.908Z,1.42
2022-07-31T17:38:53.301Z,1.55
2022-07-31T17:41:25.564Z,1.70
2022-07-31T17:43:56.032Z,1.45
2022-07-31T17:46:34.754Z,1.55
2022-07-31T17:49:04.100Z,1.50
2022-07-31T17:51:30.495Z,1.40
2022-07-31T17:53:59.667Z,1.50
2022-07-31T17:56:26.527Z,1.63
2022-07-31T17:58:52.952Z,1.65
2022-07-31T18:01:19.417Z,2.35
2022-07-31T18:03:45.954Z,2.60
2022-07-31T18:06:12.335Z,3.63
2022-07-31T18:08:38.780Z,4.97
2022-07-31T18:11:06.481Z,2.42
2022-07-31T18:13:47.850Z,1.30
2022-07-31T18:16:16.340Z,1.63
2022-07-31T18:18:43.113Z,1.67
2022-07-31T18:21:09.765Z,1.40
2022-07-31T18:23:36.183Z,1.58
2022-07-31T18:26:03.714Z,1.70
2022-07-31T18:28:31.586Z,1.83
2022-07-31T18:31:01.719Z,1.85
2022-07-31T18:33:28.073Z,1.70
2022-07-31T18:35:54.767Z,2.10
2022-07-31T18:38:21.228Z,1.98
2022-07-31T18:40:47.627Z,1.70
2022-07-31T18:43:13.994Z,1.83
2022-07-31T18:45:41.725Z,1.85
2022-07-31T18:48:08.281Z,1.98
2022-07-31T18:51:02.440Z,1.90
2022-07-31T18:53:21.283Z,2.10
2022-07-31T18:55:47.772Z,1.80
2022-07-31T18:58:14.304Z,2.25
2022-07-31T19:00:40.733Z,2.00
2022-07-31T19:03:07.783Z,1.92
2022-07-31T19:05:34.480Z,1.77
2022-07-31T19:08:00.880Z,1.80
2022-07-31T19:10:31.215Z,2.10
2022-07-31T19:12:58.600Z,1.90
2022-07-31T19:15:25.124Z,2.00
2022-07-31T19:17:51.484Z,1.50
2022-07-31T19:20:57.468Z,1.88
2022-07-31T19:23:12.622Z,1.70
2022-07-31T19:25:53.916Z,1.95
2022-07-31T19:28:27.251Z,1.60
2022-07-31T19:30:54.303Z,1.55
2022-07-31T19:33:21.001Z,2.08
2022-07-31T19:35:58.616Z,2.55
2022-07-31T19:38:28.275Z,2.60
2022-07-31T19:40:54.889Z,1.65
2022-07-31T19:43:21.283Z,1.60
2022-07-31T19:46:02.620Z,1.30
2022-07-31T19:48:36.297Z,1.38
2022-07-31T19:51:02.769Z,1.73
2022-07-31T19:53:29.171Z,1.65
2022-07-31T19:55:55.758Z,1.92
2022-07-31T19:58:22.176Z,1.70
2022-07-31T20:00:48.752Z,2.47
2022-07-31T20:03:15.178Z,2.40
2022-07-31T20:05:41.588Z,2.33
2022-07-31T20:08:07.992Z,1.50
2022-07-31T20:10:34.380Z,2.05
2022-07-31T20:13:00.887Z,1.67
2022-07-31T20:15:27.451Z,1.40
2022-07-31T20:18:16.677Z,1.80
2022-07-31T20:21:14.914Z,2.05
2022-07-31T20:23:41.861Z,1.63
2022-07-31T20:26:10.475Z,2.20
2022-07-31T20:28:37.371Z,1.90
2022-07-31T20:31:03.924Z,2.15
2022-07-31T20:33:30.296Z,2.20
2022-07-31T20:35:56.725Z,2.30
2022-07-31T20:38:24.021Z,2.00
2022-07-31T20:40:53.792Z,2.22
2022-07-31T20:43:26.740Z,1.98
2022-07-31T20:45:57.071Z,2.13
2022-07-31T20:48:26.892Z,1.80
2022-07-31T20:50:53.298Z,2.00
2022-07-31T20:53:20.758Z,2.55
2022-07-31T20:55:49.555Z,2.00
2022-07-31T20:58:21.163Z,1.67
2022-07-31T21:00:49.139Z,2.40
2022-07-31T21:03:16.614Z,2.97
2022-07-31T21:05:44.201Z,3.42
2022-07-31T21:08:11.125Z,2.67
2022-07-31T21:10:38.012Z,2.67
2022-07-31T21:13:04.662Z,2.60
2022-07-31T21:15:42.555Z,2.80
2022-07-31T21:18:14.440Z,3.20
2022-07-31T21:20:51.198Z,2.80
2022-07-31T21:23:23.099Z,2.20
2022-07-31T21:25:53.999Z,2.28
2022-07-31T21:28:21.070Z,2.05
2022-07-31T21:30:47.912Z,2.20
2022-07-31T21:33:14.945Z,2.10
2022-07-31T21:35:41.591Z,2.22
2022-07-31T21:38:12.127Z,2.30
2022-07-31T21:40:40.023Z,1.92
2022-07-31T21:43:06.791Z,1.80
2022-07-31T21:45:41.219Z,1.80
2022-07-31T21:48:22.536Z,2.08
2022-07-31T21:50:49.144Z,1.85
2022-07-31T21:53:15.550Z,1.90
2022-07-31T21:55:41.976Z,1.88
2022-07-31T21:58:09.040Z,1.58
2022-07-31T22:00:35.800Z,1.90
2022-07-31T22:03:02.783Z,1.73
2022-07-31T22:05:49.041Z,1.60
2022-07-31T22:08:16.283Z,3.35
2022-07-31T22:38:44.053Z,1.92
2022-07-31T22:41:13.858Z,1.80
2022-07-31T22:44:09.862Z,2.40
2022-07-31T22:46:32.580Z,2.30
2022-07-31T22:48:59.906Z,1.75
2022-07-31T22:51:26.402Z,1.55
2022-07-31T22:53:52.778Z,1.48
2022-07-31T22:56:19.197Z,1.80
2022-07-31T22:58:45.597Z,1.25
2022-07-31T23:01:11.984Z,1.70
2022-07-31T23:03:38.344Z,1.33
2022-07-31T23:06:30.822Z,1.40
2022-07-31T23:08:54.775Z,1.30
2022-07-31T23:11:22.512Z,1.42
2022-07-31T23:13:48.916Z,1.27
2022-07-31T23:16:15.308Z,1.20
2022-07-31T23:18:41.648Z,1.20
2022-07-31T23:21:08.352Z,1.50
2022-07-31T23:23:36.184Z,1.20
2022-07-31T23:26:02.613Z,2.50
2022-07-31T23:28:29.119Z,1.70
2022-07-31T23:30:55.532Z,1.30
2022-07-31T23:33:21.874Z,1.73
2022-07-31T23:35:48.348Z,1.10
2022-07-31T23:38:14.908Z,1.08
2022-07-31T23:40:41.340Z,1.15
2022-07-31T23:43:07.686Z,1.63
2022-07-31T23:45:35.848Z,1.33
2022-07-31T23:48:04.290Z,1.27
2022-07-31T23:50:31.473Z,1.27
2022-07-31T23:52:57.989Z,1.35
2022-07-31T23:55:24.707Z,1.13
2022-07-31T23:57:51.126Z,1.83
